createdAt,value
2023-04-27T00:00:00.952Z,77.70
2023-04-27T00:02:29.214Z,77.60
2023-04-27T00:04:57.807Z,77.50
2023-04-27T00:07:26.605Z,77.20
2023-04-27T00:09:56.157Z,77.70
2023-04-27T00:12:24.729Z,77.80
2023-04-27T00:14:52.897Z,78.10
2023-04-27T00:17:21.234Z,78.30
2023-04-27T00:19:49.458Z,78.40
2023-04-27T00:22:17.657Z,78.30
2023-04-27T00:24:45.989Z,78.50
2023-04-27T00:27:15.544Z,78.40
2023-04-27T00:29:43.864Z,78.50
2023-04-27T00:32:12.413Z,78.70
2023-04-27T00:34:40.720Z,78.70
2023-04-27T00:37:08.878Z,78.60
2023-04-27T00:39:37.114Z,78.90
2023-04-27T00:42:06.422Z,79.10
2023-04-27T00:44:36.115Z,79.00
2023-04-27T00:47:06.156Z,79.10
2023-04-27T00:49:34.691Z,79.10
2023-04-27T00:52:03.650Z,78.90
2023-04-27T00:54:32.772Z,78.60
2023-04-27T00:57:01.240Z,78.70
2023-04-27T00:59:30.838Z,79.00
2023-04-27T01:02:03.811Z,79.30
2023-04-27T01:04:33.208Z,78.80
2023-04-27T01:07:02.854Z,78.60
2023-04-27T01:09:31.134Z,79.10
2023-04-27T01:11:59.759Z,79.30
2023-04-27T01:14:28.037Z,79.50
2023-04-27T01:16:56.450Z,79.10
2023-04-27T01:19:26.218Z,79.30
2023-04-27T01:21:54.419Z,79.70
2023-04-27T01:24:23.955Z,79.70
2023-04-27T01:26:53.963Z,79.30
2023-04-27T01:29:22.496Z,79.30
2023-04-27T01:31:50.815Z,79.00
2023-04-27T01:34:19.058Z,79.20
2023-04-27T01:36:47.302Z,79.60
2023-04-27T01:39:15.603Z,79.80
2023-04-27T01:41:46.217Z,79.60
2023-04-27T01:44:14.519Z,80.10
2023-04-27T01:46:42.886Z,79.60
2023-04-27T01:49:11.402Z,79.70
2023-04-27T01:51:39.810Z,79.80
2023-04-27T01:54:08.073Z,79.60
2023-04-27T01:56:36.262Z,79.80
2023-04-27T01:59:05.837Z,79.80
2023-04-27T02:01:34.578Z,79.60
2023-04-27T02:04:02.964Z,79.70
2023-04-27T02:06:31.480Z,80.20
2023-04-27T02:08:59.823Z,80.30
2023-04-27T02:11:29.293Z,80.30
2023-04-27T02:13:57.467Z,80.10
2023-04-27T02:16:27.052Z,80.00
2023-04-27T02:18:55.282Z,80.30
2023-04-27T02:21:24.182Z,80.50
2023-04-27T02:23:52.569Z,80.70
2023-04-27T02:26:22.510Z,80.30
2023-04-27T02:28:52.059Z,80.50
2023-04-27T02:31:20.663Z,80.40
2023-04-27T02:33:50.504Z,80.40
2023-04-27T02:36:18.731Z,80.60
2023-04-27T02:38:46.943Z,80.20
2023-04-27T02:41:15.287Z,80.60
2023-04-27T02:43:43.480Z,81.00
2023-04-27T02:46:12.238Z,80.70
2023-04-27T02:48:40.452Z,80.90
2023-04-27T02:51:10.033Z,81.00
2023-04-27T02:53:38.356Z,80.90
2023-04-27T02:56:07.120Z,80.70
2023-04-27T02:58:35.378Z,80.90
2023-04-27T03:01:03.671Z,80.60
2023-04-27T03:03:32.007Z,80.20
2023-04-27T03:06:00.416Z,81.00
2023-04-27T03:08:30.057Z,81.30
2023-04-27T03:10:58.233Z,81.40
2023-04-27T03:13:26.417Z,81.10
2023-04-27T03:15:54.618Z,80.40
2023-04-27T03:18:22.837Z,80.70
2023-04-27T03:20:51.112Z,80.70
2023-04-27T03:23:19.288Z,79.90
2023-04-27T03:25:49.280Z,79.80
2023-04-27T03:28:17.494Z,80.10
2023-04-27T03:30:46.338Z,80.50
2023-04-27T03:33:14.905Z,81.00
2023-04-27T03:35:43.117Z,80.90
2023-04-27T03:38:11.314Z,80.80
2023-04-27T03:40:39.650Z,80.90
2023-04-27T03:43:09.223Z,80.60
2023-04-27T03:45:37.401Z,80.70
2023-04-27T03:48:07.036Z,81.20
2023-04-27T03:50:35.447Z,81.20
2023-04-27T03:53:03.658Z,80.90
2023-04-27T03:55:32.658Z,80.90
2023-04-27T03:58:00.987Z,80.90
2023-04-27T04:00:31.375Z,81.40
2023-04-27T04:03:00.190Z,81.10
2023-04-27T04:05:28.471Z,80.80
2023-04-27T04:07:56.907Z,80.80
2023-04-27T04:10:25.425Z,80.50
2023-04-27T04:12:53.697Z,80.40
2023-04-27T04:15:22.110Z,80.50
2023-04-27T04:17:51.920Z,80.40
2023-04-27T04:20:20.230Z,80.60
2023-04-27T04:22:48.529Z,81.00
2023-04-27T04:25:16.836Z,80.90
2023-04-27T04:27:45.211Z,80.90
2023-04-27T04:30:14.877Z,81.30
2023-04-27T04:32:45.030Z,81.50
2023-04-27T04:35:16.220Z,81.60
2023-04-27T04:37:44.492Z,82.30
2023-04-27T04:40:14.097Z,81.90
2023-04-27T04:42:42.259Z,82.20
2023-04-27T04:45:11.583Z,82.30
2023-04-27T04:47:39.999Z,82.20
2023-04-27T04:50:10.453Z,82.40
2023-04-27T04:52:40.270Z,82.40
2023-04-27T04:55:09.137Z,82.50
2023-04-27T04:57:37.365Z,82.70
2023-04-27T05:00:11.389Z,82.70
2023-04-27T05:02:39.832Z,83.20
2023-04-27T05:05:09.357Z,83.20
2023-04-27T05:07:39.049Z,83.10
2023-04-27T05:10:08.307Z,83.80
2023-04-27T05:12:36.530Z,83.40
2023-04-27T05:15:05.341Z,83.20
2023-04-27T05:17:33.626Z,82.90
2023-04-27T05:20:01.888Z,82.70
2023-04-27T05:22:30.056Z,82.60
2023-04-27T05:24:59.744Z,82.40
2023-04-27T05:27:28.011Z,81.90
2023-04-27T05:29:56.207Z,81.20
2023-04-27T05:32:24.396Z,80.30
2023-04-27T05:34:52.955Z,79.70
2023-04-27T05:37:21.141Z,79.40
2023-04-27T05:39:49.335Z,78.80
2023-04-27T05:42:18.871Z,78.30
2023-04-27T05:44:47.176Z,78.20
2023-04-27T05:47:16.973Z,77.70
2023-04-27T05:49:45.586Z,77.60
2023-04-27T05:52:13.714Z,77.70
2023-04-27T05:54:41.877Z,77.70
2023-04-27T05:57:10.101Z,77.30
2023-04-27T05:59:39.622Z,77.30
2023-04-27T06:02:08.294Z,77.30
2023-04-27T06:04:37.494Z,76.60
2023-04-27T06:07:10.408Z,76.00
2023-04-27T06:09:38.813Z,75.50
2023-04-27T06:12:08.130Z,75.10
2023-04-27T06:14:39.163Z,74.70
2023-04-27T06:17:07.386Z,74.60
2023-04-27T06:19:35.595Z,75.20
2023-04-27T06:22:04.386Z,74.00
2023-04-27T06:24:32.702Z,73.70
2023-04-27T06:27:01.391Z,73.70
2023-04-27T06:29:29.963Z,73.20
2023-04-27T06:31:59.644Z,73.10
2023-04-27T06:34:27.999Z,72.50
2023-04-27T06:36:56.400Z,71.80
2023-04-27T06:39:24.722Z,72.20
2023-04-27T06:41:52.921Z,71.80
2023-04-27T06:44:21.099Z,70.70
2023-04-27T06:46:49.438Z,69.90
2023-04-27T06:49:19.045Z,69.00
2023-04-27T06:51:47.628Z,69.70
2023-04-27T06:54:16.569Z,69.10
2023-04-27T06:56:45.731Z,68.70
2023-04-27T06:59:14.090Z,68.60
2023-04-27T07:01:42.517Z,68.30
2023-04-27T07:04:10.912Z,67.50
2023-04-27T07:06:40.903Z,67.00
2023-04-27T07:09:19.882Z,66.50
2023-04-27T07:11:48.674Z,65.20
2023-04-27T07:14:16.958Z,65.50
2023-04-27T07:16:45.131Z,65.40
2023-04-27T07:19:13.509Z,65.60
2023-04-27T07:21:43.320Z,66.00
2023-04-27T07:24:11.497Z,66.00
2023-04-27T07:26:39.686Z,64.70
2023-04-27T07:29:23.073Z,64.40
2023-04-27T07:31:54.325Z,63.30
2023-04-27T07:34:23.064Z,64.00
2023-04-27T07:36:54.304Z,64.40
2023-04-27T07:39:22.715Z,62.80
2023-04-27T07:41:51.720Z,63.00
2023-04-27T07:44:20.830Z,60.90
2023-04-27T07:46:50.156Z,61.00
2023-04-27T07:49:18.480Z,60.90
2023-04-27T07:51:46.803Z,60.60
2023-04-27T07:54:16.334Z,60.80
2023-04-27T07:56:44.521Z,61.10
2023-04-27T07:59:13.001Z,61.60
2023-04-27T08:01:41.310Z,60.60
2023-04-27T08:04:09.870Z,60.20
2023-04-27T08:06:38.507Z,61.00
2023-04-27T08:09:07.881Z,61.50
2023-04-27T08:11:37.468Z,61.60
2023-04-27T08:14:05.653Z,60.80
2023-04-27T08:16:33.902Z,60.50
2023-04-27T08:19:02.411Z,59.60
2023-04-27T08:21:30.609Z,59.90
2023-04-27T08:23:58.776Z,59.80
2023-04-27T08:26:27.130Z,60.10
2023-04-27T08:28:57.516Z,60.10
2023-04-27T08:31:27.021Z,59.90
2023-04-27T08:33:55.370Z,60.10
2023-04-27T08:36:25.026Z,58.70
2023-04-27T08:38:53.365Z,58.50
2023-04-27T08:41:22.590Z,56.70
2023-04-27T08:43:51.515Z,58.60
2023-04-27T08:46:22.206Z,57.40
2023-04-27T08:48:52.324Z,57.40
2023-04-27T08:51:21.798Z,56.10
2023-04-27T08:53:52.074Z,58.00
2023-04-27T08:56:20.615Z,56.30
2023-04-27T08:58:48.850Z,56.00
2023-04-27T09:01:17.225Z,55.10
2023-04-27T09:03:47.969Z,53.30
2023-04-27T09:06:17.261Z,53.00
2023-04-27T09:08:47.940Z,53.10
2023-04-27T09:11:17.695Z,53.90
2023-04-27T09:13:46.193Z,54.30
2023-04-27T09:16:15.351Z,52.80
2023-04-27T09:18:46.021Z,53.00
2023-04-27T09:21:24.442Z,51.40
2023-04-27T09:23:53.194Z,50.80
2023-04-27T09:26:22.895Z,50.50
2023-04-27T09:28:53.678Z,50.60
2023-04-27T09:31:22.977Z,51.40
2023-04-27T09:33:57.563Z,52.30
2023-04-27T09:36:27.002Z,51.10
2023-04-27T09:38:55.643Z,51.60
2023-04-27T09:41:24.031Z,49.10
2023-04-27T09:43:53.455Z,46.90
2023-04-27T09:46:25.956Z,48.60
2023-04-27T09:48:56.213Z,48.40
2023-04-27T09:51:24.420Z,48.80
2023-04-27T09:53:55.398Z,49.70
2023-04-27T09:56:36.646Z,50.50
2023-04-27T09:59:21.661Z,45.70
2023-04-27T10:01:55.546Z,44.90
2023-04-27T10:04:46.378Z,46.30
2023-04-27T10:07:16.483Z,45.30
2023-04-27T10:09:47.344Z,44.90
2023-04-27T10:12:18.382Z,44.10
2023-04-27T10:14:54.354Z,46.30
2023-04-27T10:17:27.584Z,46.90
2023-04-27T10:19:59.816Z,44.40
2023-04-27T10:22:40.341Z,45.80
2023-04-27T10:25:19.038Z,46.20
2023-04-27T10:27:52.751Z,43.90
2023-04-27T10:30:23.063Z,44.20
2023-04-27T10:32:53.685Z,44.20
2023-04-27T10:35:24.423Z,45.00
2023-04-27T10:37:53.208Z,44.00
2023-04-27T10:40:21.401Z,43.20
2023-04-27T10:42:50.166Z,43.70
2023-04-27T10:45:31.140Z,42.60
2023-04-27T10:48:02.179Z,42.20
2023-04-27T10:50:32.434Z,42.30
2023-04-27T10:53:06.217Z,42.60
2023-04-27T10:55:36.153Z,41.60
2023-04-27T10:58:04.873Z,41.80
2023-04-27T11:00:36.638Z,42.20
2023-04-27T11:03:16.412Z,43.70
2023-04-27T11:05:48.313Z,43.60
2023-04-27T11:08:19.037Z,43.50
2023-04-27T11:10:50.030Z,44.50
2023-04-27T11:13:20.750Z,45.10
2023-04-27T11:15:51.172Z,43.00
2023-04-27T11:18:21.058Z,43.30
2023-04-27T11:20:53.619Z,43.40
2023-04-27T11:23:26.392Z,44.10
2023-04-27T11:25:55.100Z,42.90
2023-04-27T11:28:24.575Z,41.50
2023-04-27T11:30:59.371Z,42.50
2023-04-27T11:33:28.023Z,43.00
2023-04-27T11:35:58.243Z,42.10
2023-04-27T11:38:28.186Z,41.50
2023-04-27T11:41:05.060Z,39.40
2023-04-27T11:43:34.115Z,42.70
2023-04-27T11:46:04.934Z,42.50
2023-04-27T11:48:33.319Z,43.40
2023-04-27T11:51:02.893Z,41.70
2023-04-27T11:53:32.367Z,41.10
2023-04-27T11:56:02.294Z,41.20
2023-04-27T11:58:31.210Z,42.90
2023-04-27T12:00:59.490Z,42.50
2023-04-27T12:03:29.472Z,42.70
2023-04-27T12:06:07.285Z,41.20
2023-04-27T12:08:46.069Z,40.90
2023-04-27T12:11:15.012Z,40.20
2023-04-27T12:13:43.227Z,39.60
2023-04-27T12:16:11.751Z,40.70
2023-04-27T12:18:39.992Z,40.60
2023-04-27T12:21:08.535Z,40.80
2023-04-27T12:23:37.362Z,41.00
2023-04-27T12:26:07.002Z,40.60
2023-04-27T12:28:35.217Z,40.00
2023-04-27T12:31:06.166Z,41.20
2023-04-27T12:33:34.452Z,40.40
2023-04-27T12:36:02.606Z,40.80
2023-04-27T12:38:30.926Z,41.30
2023-04-27T12:41:01.890Z,40.60
2023-04-27T12:43:31.439Z,41.00
2023-04-27T12:45:59.623Z,41.60
2023-04-27T12:48:27.943Z,41.10
2023-04-27T12:50:56.217Z,40.30
2023-04-27T12:53:24.455Z,40.30
2023-04-27T12:55:53.484Z,39.00
2023-04-27T12:58:21.700Z,37.40
2023-04-27T13:00:51.360Z,37.80
2023-04-27T13:03:19.602Z,38.10
2023-04-27T13:05:47.860Z,38.60
2023-04-27T13:08:16.042Z,37.50
2023-04-27T13:10:45.423Z,38.50
2023-04-27T13:13:13.736Z,39.20
2023-04-27T13:15:41.986Z,39.90
2023-04-27T13:18:11.593Z,39.50
2023-04-27T13:20:39.922Z,37.60
2023-04-27T13:23:08.119Z,34.50
2023-04-27T13:25:36.421Z,35.70
2023-04-27T13:28:04.987Z,36.30
2023-04-27T13:30:33.185Z,36.80
2023-04-27T13:33:18.486Z,37.30
2023-04-27T13:35:52.292Z,37.00
2023-04-27T13:38:20.498Z,37.50
2023-04-27T13:40:48.676Z,38.90
2023-04-27T13:43:16.875Z,38.50
2023-04-27T13:45:45.367Z,38.40
2023-04-27T13:48:13.612Z,36.60
2023-04-27T13:50:41.926Z,37.40
2023-04-27T13:53:12.114Z,38.10
2023-04-27T13:55:40.450Z,37.00
2023-04-27T13:58:08.676Z,37.60
2023-04-27T14:00:37.432Z,38.20
2023-04-27T14:03:09.076Z,38.10
2023-04-27T14:05:37.397Z,39.10
2023-04-27T14:08:06.235Z,38.50
2023-04-27T14:10:38.068Z,38.70
2023-04-27T14:13:06.608Z,38.50
2023-04-27T14:15:37.336Z,37.70
2023-04-27T14:18:07.673Z,37.80
2023-04-27T14:20:36.171Z,37.70
2023-04-27T14:23:06.133Z,38.10
2023-04-27T14:25:35.864Z,37.70
2023-04-27T14:28:07.082Z,37.50
2023-04-27T14:30:36.158Z,38.20
2023-04-27T14:33:04.734Z,38.30
2023-04-27T14:35:35.950Z,38.10
2023-04-27T14:38:04.516Z,37.90
2023-04-27T14:40:34.811Z,39.80
2023-04-27T14:43:02.973Z,39.20
2023-04-27T14:45:43.596Z,38.20
2023-04-27T14:48:18.914Z,38.70
2023-04-27T14:50:47.352Z,36.90
2023-04-27T14:53:15.594Z,38.10
2023-04-27T14:55:45.962Z,37.80
2023-04-27T14:58:14.210Z,39.30
2023-04-27T15:00:42.403Z,37.90
2023-04-27T15:03:10.782Z,38.30
2023-04-27T15:05:39.269Z,39.00
2023-04-27T15:08:07.488Z,39.10
2023-04-27T15:10:35.698Z,39.70
2023-04-27T15:13:05.325Z,39.50
2023-04-27T15:15:33.542Z,39.50
2023-04-27T15:18:02.079Z,38.60
2023-04-27T15:20:30.384Z,39.20
2023-04-27T15:22:58.550Z,39.10
2023-04-27T15:25:26.827Z,37.80
2023-04-27T15:27:55.058Z,38.80
2023-04-27T15:30:24.714Z,39.80
2023-04-27T15:32:52.936Z,39.00
2023-04-27T15:35:21.202Z,40.20
2023-04-27T15:37:49.395Z,38.30
2023-04-27T15:40:18.301Z,39.50
2023-04-27T15:42:46.494Z,40.30
2023-04-27T15:45:14.657Z,40.30
2023-04-27T15:47:44.278Z,41.30
2023-04-27T15:50:13.247Z,39.30
2023-04-27T15:52:41.456Z,39.90
2023-04-27T15:55:10.286Z,40.60
2023-04-27T15:57:38.552Z,39.60
2023-04-27T16:00:10.390Z,40.00
2023-04-27T16:02:38.886Z,41.30
2023-04-27T16:05:10.872Z,40.90
2023-04-27T16:07:40.263Z,39.30
2023-04-27T16:10:11.185Z,40.10
2023-04-27T16:12:39.345Z,40.00
2023-04-27T16:15:10.922Z,39.60
2023-04-27T16:17:40.107Z,40.00
2023-04-27T16:20:10.649Z,39.90
2023-04-27T16:22:39.329Z,40.60
2023-04-27T16:25:10.833Z,41.50
2023-04-27T16:27:39.552Z,41.30
2023-04-27T16:30:09.367Z,40.80
2023-04-27T16:32:38.453Z,41.40
2023-04-27T16:35:09.554Z,41.40
2023-04-27T16:37:37.720Z,41.20
2023-04-27T16:40:08.342Z,40.10
2023-04-27T16:42:36.565Z,42.00
2023-04-27T16:45:06.763Z,41.50
2023-04-27T16:47:36.569Z,41.50
2023-04-27T16:50:05.247Z,42.70
2023-04-27T16:52:34.863Z,42.60
2023-04-27T16:55:03.119Z,42.90
2023-04-27T16:57:31.329Z,42.50
2023-04-27T16:59:59.754Z,43.30
2023-04-27T17:02:28.240Z,43.20
2023-04-27T17:04:57.617Z,43.50
2023-04-27T17:07:28.443Z,43.70
2023-04-27T17:09:58.067Z,44.60
2023-04-27T17:12:26.454Z,44.40
2023-04-27T17:14:54.651Z,43.30
2023-04-27T17:17:22.869Z,43.10
2023-04-27T17:19:51.495Z,43.50
2023-04-27T17:22:19.858Z,43.10
2023-04-27T17:24:48.032Z,42.50
2023-04-27T17:27:17.757Z,44.20
2023-04-27T17:29:46.013Z,44.00
2023-04-27T17:32:14.287Z,43.90
2023-04-27T17:34:43.167Z,45.20
2023-04-27T17:37:11.626Z,44.30
2023-04-27T17:39:39.870Z,44.40
2023-04-27T17:42:12.237Z,44.40
2023-04-27T17:44:42.402Z,45.40
2023-04-27T17:47:10.748Z,45.00
2023-04-27T17:49:39.037Z,44.60
2023-04-27T17:52:07.298Z,46.30
2023-04-27T17:54:35.512Z,45.70
2023-04-27T17:57:03.968Z,46.70
2023-04-27T17:59:32.205Z,46.50
2023-04-27T18:02:01.788Z,47.10
2023-04-27T18:04:30.174Z,47.20
2023-04-27T18:06:58.406Z,47.60
2023-04-27T18:09:28.779Z,47.90
2023-04-27T18:11:58.529Z,48.20
2023-04-27T18:14:26.983Z,48.70
2023-04-27T18:16:55.348Z,49.20
2023-04-27T18:19:24.977Z,48.00
2023-04-27T18:21:53.219Z,48.50
2023-04-27T18:24:21.491Z,48.00
2023-04-27T18:26:49.724Z,47.70
2023-04-27T18:29:18.034Z,47.90
2023-04-27T18:31:46.580Z,48.00
2023-04-27T18:34:14.809Z,47.70
2023-04-27T18:36:48.025Z,47.60
2023-04-27T18:39:18.005Z,47.90
2023-04-27T18:41:46.202Z,48.00
2023-04-27T18:44:15.714Z,47.80
2023-04-27T18:46:44.712Z,48.30
2023-04-27T18:49:13.315Z,47.90
2023-04-27T18:51:43.079Z,47.80
2023-04-27T18:54:11.349Z,48.30
2023-04-27T18:56:39.839Z,47.80
2023-04-27T18:59:08.098Z,48.20
2023-04-27T19:01:37.717Z,47.60
2023-04-27T19:04:07.262Z,48.60
2023-04-27T19:06:36.292Z,48.30
2023-04-27T19:09:05.891Z,48.00
2023-04-27T19:11:34.183Z,48.60
2023-04-27T19:14:02.411Z,48.60
2023-04-27T19:16:30.667Z,48.70
2023-04-27T19:18:58.961Z,48.80
2023-04-27T19:21:27.275Z,49.60
2023-04-27T19:23:55.638Z,50.10
2023-04-27T19:26:26.034Z,49.70
2023-04-27T19:28:55.834Z,49.80
2023-04-27T19:31:24.249Z,50.20
2023-04-27T19:33:55.279Z,50.40
2023-04-27T19:36:24.115Z,51.40
2023-04-27T19:38:52.273Z,50.80
2023-04-27T19:41:20.917Z,50.60
2023-04-27T19:43:50.654Z,51.10
2023-04-27T19:46:18.946Z,51.80
2023-04-27T19:48:47.147Z,52.10
2023-04-27T19:51:15.366Z,51.30
2023-04-27T19:53:43.568Z,52.00
2023-04-27T19:56:11.766Z,51.90
2023-04-27T19:58:39.945Z,51.80
2023-04-27T20:01:11.685Z,52.00
2023-04-27T20:03:41.405Z,52.20
2023-04-27T20:06:10.436Z,52.70
2023-04-27T20:08:38.735Z,52.40
2023-04-27T20:11:07.018Z,53.60
2023-04-27T20:13:35.313Z,53.40
2023-04-27T20:16:05.058Z,52.90
2023-04-27T20:18:35.133Z,52.70
2023-04-27T20:21:04.146Z,53.40
2023-04-27T20:23:32.325Z,53.50
2023-04-27T20:26:00.570Z,53.50
2023-04-27T20:28:30.349Z,53.70
2023-04-27T20:30:58.837Z,52.70
2023-04-27T20:33:27.090Z,53.30
2023-04-27T20:36:03.691Z,53.00
2023-04-27T20:38:34.848Z,53.00
2023-04-27T20:41:03.756Z,53.00
2023-04-27T20:43:32.687Z,54.60
2023-04-27T20:46:00.970Z,53.00
2023-04-27T20:48:29.669Z,52.80
2023-04-27T20:50:59.469Z,53.30
2023-04-27T20:53:27.752Z,53.30
2023-04-27T20:55:56.043Z,53.40
2023-04-27T20:58:24.406Z,53.10
2023-04-27T21:00:52.858Z,53.50
2023-04-27T21:03:21.257Z,53.20
2023-04-27T21:05:50.148Z,52.80
2023-04-27T21:08:19.696Z,53.70
2023-04-27T21:10:47.944Z,54.00
2023-04-27T21:13:16.200Z,54.00
2023-04-27T21:15:44.419Z,54.10
2023-04-27T21:18:22.350Z,53.40
2023-04-27T21:20:57.738Z,53.90
2023-04-27T21:23:27.323Z,53.80
2023-04-27T21:25:55.898Z,53.90
2023-04-27T21:28:24.172Z,54.30
2023-04-27T21:30:52.414Z,54.20
2023-04-27T21:33:21.366Z,53.90
2023-04-27T21:35:49.584Z,54.00
2023-04-27T21:38:17.817Z,54.30
2023-04-27T21:40:47.375Z,54.20
2023-04-27T21:43:15.933Z,54.60
2023-04-27T21:45:44.082Z,54.50
2023-04-27T21:48:12.298Z,54.80
2023-04-27T21:50:40.499Z,54.80
2023-04-27T21:53:09.271Z,55.60
2023-04-27T21:55:37.437Z,56.10
2023-04-27T21:58:07.069Z,56.00
2023-04-27T22:00:35.839Z,55.80
2023-04-27T22:03:05.172Z,56.20
2023-04-27T22:05:33.539Z,55.20
2023-04-27T22:08:01.748Z,55.50
2023-04-27T22:10:29.994Z,55.40
2023-04-27T22:13:00.375Z,55.30
2023-04-27T22:15:32.290Z,55.80
2023-04-27T22:18:00.474Z,56.60
2023-04-27T22:20:29.424Z,56.60
2023-04-27T22:22:57.581Z,56.80
2023-04-27T22:25:25.855Z,57.40
2023-04-27T22:27:54.049Z,57.80
2023-04-27T22:30:22.257Z,57.60
2023-04-27T22:32:52.096Z,58.00
2023-04-27T22:35:26.198Z,58.40
2023-04-27T22:37:56.064Z,57.90
2023-04-27T22:40:24.718Z,58.20
2023-04-27T22:42:53.309Z,58.50
2023-04-27T22:45:22.047Z,59.80
2023-04-27T22:47:51.966Z,59.90
2023-04-27T22:50:20.512Z,60.60
2023-04-27T22:52:48.713Z,60.50
2023-04-27T22:55:17.101Z,61.40
2023-04-27T22:57:45.469Z,61.50
2023-04-27T23:00:15.228Z,62.00
2023-04-27T23:02:43.865Z,62.40
2023-04-27T23:05:13.640Z,62.20
2023-04-27T23:07:42.877Z,61.60
2023-04-27T23:10:12.960Z,61.10
2023-04-27T23:12:41.685Z,61.50
2023-04-27T23:15:10.705Z,61.70
2023-04-27T23:17:38.950Z,62.20
2023-04-27T23:20:24.119Z,63.00
2023-04-27T23:22:56.684Z,62.70
2023-04-27T23:25:24.920Z,62.30
2023-04-27T23:27:53.280Z,63.40
2023-04-27T23:30:22.479Z,62.70
2023-04-27T23:32:50.858Z,64.10
2023-04-27T23:35:19.074Z,63.50
2023-04-27T23:37:47.307Z,64.90
2023-04-27T23:40:17.105Z,64.10
2023-04-27T23:42:45.304Z,64.20
2023-04-27T23:45:13.597Z,63.10
2023-04-27T23:47:42.903Z,63.60
2023-04-27T23:50:11.763Z,64.00
2023-04-27T23:52:39.915Z,63.90
2023-04-27T23:55:10.295Z,65.10
2023-04-27T23:57:39.952Z,64.60
